sensor_id;sensor_type;location;lat;lon;timestamp;temperature;humidity
9179;DHT22;71287;48.414;11.478;2024-01-30T00:00:32;0.50;99.90
9179;DHT22;71287;48.414;11.478;2024-01-30T00:02:59;0.50;99.90
9179;DHT22;71287;48.414;11.478;2024-01-30T00:05:25;0.50;99.90
9179;DHT22;71287;48.414;11.478;2024-01-30T00:07:53;0.50;99.90
9179;DHT22;71287;48.414;11.478;2024-01-30T00:10:20;0.50;99.90
9179;DHT22;71287;48.414;11.478;2024-01-30T00:12:47;0.50;99.90
9179;DHT22;71287;48.414;11.478;2024-01-30T00:15:14;0.50;99.90
9179;DHT22;71287;48.414;11.478;2024-01-30T00:17:40;0.50;99.90
9179;DHT22;71287;48.414;11.478;2024-01-30T00:20:08;0.50;99.90
9179;DHT22;71287;48.414;11.478;2024-01-30T00:22:35;0.50;99.90
9179;DHT22;71287;48.414;11.478;2024-01-30T00:25:03;0.40;99.90
9179;DHT22;71287;48.414;11.478;2024-01-30T00:27:30;0.40;99.90
9179;DHT22;71287;48.414;11.478;2024-01-30T00:29:57;0.40;99.90
9179;DHT22;71287;48.414;11.478;2024-01-30T00:32:23;0.40;99.90
9179;DHT22;71287;48.414;11.478;2024-01-30T00:34:50;0.30;99.90
9179;DHT22;71287;48.414;11.478;2024-01-30T00:37:17;0.30;99.90
9179;DHT22;71287;48.414;11.478;2024-01-30T00:39:44;0.30;99.90
9179;DHT22;71287;48.414;11.478;2024-01-30T00:42:12;0.30;99.90
9179;DHT22;71287;48.414;11.478;2024-01-30T00:44:38;0.20;99.90
9179;DHT22;71287;48.414;11.478;2024-01-30T00:47:05;0.30;99.90
9179;DHT22;71287;48.414;11.478;2024-01-30T00:49:32;0.30;99.90
9179;DHT22;71287;48.414;11.478;2024-01-30T00:51:59;0.30;99.90
9179;DHT22;71287;48.414;11.478;2024-01-30T00:54:26;0.30;99.90
9179;DHT22;71287;48.414;11.478;2024-01-30T00:56:52;0.30;99.90
9179;DHT22;71287;48.414;11.478;2024-01-30T00:59:20;0.30;99.90
9179;DHT22;71287;48.414;11.478;2024-01-30T01:01:47;0.30;99.90
9179;DHT22;71287;48.414;11.478;2024-01-30T01:04:14;0.30;99.90
9179;DHT22;71287;48.414;11.478;2024-01-30T01:06:41;0.20;99.90
9179;DHT22;71287;48.414;11.478;2024-01-30T01:09:10;0.20;99.90
9179;DHT22;71287;48.414;11.478;2024-01-30T01:11:36;0.20;99.90
9179;DHT22;71287;48.414;11.478;2024-01-30T01:14:04;0.20;99.90
9179;DHT22;71287;48.414;11.478;2024-01-30T01:16:32;0.20;99.90
9179;DHT22;71287;48.414;11.478;2024-01-30T01:18:59;0.20;99.90
9179;DHT22;71287;48.414;11.478;2024-01-30T01:21:26;0.20;99.90
9179;DHT22;71287;48.414;11.478;2024-01-30T01:23:53;0.20;99.90
9179;DHT22;71287;48.414;11.478;2024-01-30T01:26:19;0.10;99.90
9179;DHT22;71287;48.414;11.478;2024-01-30T01:28:46;0.10;99.90
9179;DHT22;71287;48.414;11.478;2024-01-30T01:31:13;0.00;99.90
9179;DHT22;71287;48.414;11.478;2024-01-30T01:33:41;0.00;99.90
9179;DHT22;71287;48.414;11.478;2024-01-30T01:36:08;0.00;99.90
9179;DHT22;71287;48.414;11.478;2024-01-30T01:38:35;0.00;99.90
9179;DHT22;71287;48.414;11.478;2024-01-30T01:41:02;0.00;99.90
9179;DHT22;71287;48.414;11.478;2024-01-30T01:43:29;-0.10;99.90
9179;DHT22;71287;48.414;11.478;2024-01-30T01:45:56;0.00;99.90
9179;DHT22;71287;48.414;11.478;2024-01-30T01:48:22;-0.10;99.90
9179;DHT22;71287;48.414;11.478;2024-01-30T01:50:52;-0.10;99.90
9179;DHT22;71287;48.414;11.478;2024-01-30T01:53:19;-0.10;99.90
9179;DHT22;71287;48.414;11.478;2024-01-30T01:55:46;-0.10;99.90
9179;DHT22;71287;48.414;11.478;2024-01-30T01:58:14;-0.20;99.90
9179;DHT22;71287;48.414;11.478;2024-01-30T02:00:41;-0.20;99.90
9179;DHT22;71287;48.414;11.478;2024-01-30T02:03:10;-0.20;99.90
9179;DHT22;71287;48.414;11.478;2024-01-30T02:05:38;-0.20;99.90
9179;DHT22;71287;48.414;11.478;2024-01-30T02:08:08;-0.20;99.90
9179;DHT22;71287;48.414;11.478;2024-01-30T02:10:35;-0.20;99.90
9179;DHT22;71287;48.414;11.478;2024-01-30T02:13:02;-0.20;99.90
9179;DHT22;71287;48.414;11.478;2024-01-30T02:15:28;-0.30;99.90
9179;DHT22;71287;48.414;11.478;2024-01-30T02:17:55;-0.30;99.90
9179;DHT22;71287;48.414;11.478;2024-01-30T02:20:24;-0.30;99.90
9179;DHT22;71287;48.414;11.478;2024-01-30T02:22:54;-0.30;99.90
9179;DHT22;71287;48.414;11.478;2024-01-30T02:25:29;-0.30;99.90
9179;DHT22;71287;48.414;11.478;2024-01-30T02:27:56;-0.30;99.90
9179;DHT22;71287;48.414;11.478;2024-01-30T02:30:23;-0.40;99.90
9179;DHT22;71287;48.414;11.478;2024-01-30T02:32:50;-0.40;99.90
9179;DHT22;71287;48.414;11.478;2024-01-30T02:35:17;-0.40;99.90
9179;DHT22;71287;48.414;11.478;2024-01-30T02:37:44;-0.40;99.90
9179;DHT22;71287;48.414;11.478;2024-01-30T02:40:12;-0.40;99.90
9179;DHT22;71287;48.414;11.478;2024-01-30T02:42:39;-0.50;99.90
9179;DHT22;71287;48.414;11.478;2024-01-30T02:45:08;-0.50;99.90
9179;DHT22;71287;48.414;11.478;2024-01-30T02:47:35;-0.50;99.90
9179;DHT22;71287;48.414;11.478;2024-01-30T02:50:03;-0.50;99.90
9179;DHT22;71287;48.414;11.478;2024-01-30T02:52:29;-0.50;99.90
9179;DHT22;71287;48.414;11.478;2024-01-30T02:54:56;-0.50;99.90
9179;DHT22;71287;48.414;11.478;2024-01-30T02:57:24;-0.50;99.90
9179;DHT22;71287;48.414;11.478;2024-01-30T02:59:51;-0.50;99.90
9179;DHT22;71287;48.414;11.478;2024-01-30T03:02:18;-0.50;99.90
9179;DHT22;71287;48.414;11.478;2024-01-30T03:04:45;-0.50;99.90
9179;DHT22;71287;48.414;11.478;2024-01-30T03:07:12;-0.50;99.90
9179;DHT22;71287;48.414;11.478;2024-01-30T03:09:41;-0.50;99.90
9179;DHT22;71287;48.414;11.478;2024-01-30T03:12:08;-0.60;99.90
9179;DHT22;71287;48.414;11.478;2024-01-30T03:14:36;-0.60;99.90
9179;DHT22;71287;48.414;11.478;2024-01-30T03:17:03;-0.60;99.90
9179;DHT22;71287;48.414;11.478;2024-01-30T03:19:30;-0.60;99.90
9179;DHT22;71287;48.414;11.478;2024-01-30T03:21:56;-0.60;99.90
9179;DHT22;71287;48.414;11.478;2024-01-30T03:24:23;-0.70;99.90
9179;DHT22;71287;48.414;11.478;2024-01-30T03:26:50;-0.60;99.90
9179;DHT22;71287;48.414;11.478;2024-01-30T03:29:17;-0.60;99.90
9179;DHT22;71287;48.414;11.478;2024-01-30T03:31:45;-0.60;99.90
9179;DHT22;71287;48.414;11.478;2024-01-30T03:34:12;-0.70;99.90
9179;DHT22;71287;48.414;11.478;2024-01-30T03:36:38;-0.70;99.90
9179;DHT22;71287;48.414;11.478;2024-01-30T03:39:05;-0.70;99.90
9179;DHT22;71287;48.414;11.478;2024-01-30T03:41:32;-0.70;99.90
9179;DHT22;71287;48.414;11.478;2024-01-30T03:43:59;-0.70;99.90
9179;DHT22;71287;48.414;11.478;2024-01-30T03:46:26;-0.70;99.90
9179;DHT22;71287;48.414;11.478;2024-01-30T03:48:54;-0.80;99.90
9179;DHT22;71287;48.414;11.478;2024-01-30T03:51:20;-0.80;99.90
9179;DHT22;71287;48.414;11.478;2024-01-30T03:53:47;-0.80;99.90
9179;DHT22;71287;48.414;11.478;2024-01-30T03:56:14;-0.80;99.90
9179;DHT22;71287;48.414;11.478;2024-01-30T03:58:41;-0.80;99.90
9179;DHT22;71287;48.414;11.478;2024-01-30T04:01:07;-0.80;99.90
9179;DHT22;71287;48.414;11.478;2024-01-30T04:03:34;-0.80;99.90
9179;DHT22;71287;48.414;11.478;2024-01-30T04:06:02;-0.80;99.90
9179;DHT22;71287;48.414;11.478;2024-01-30T04:08:29;-0.90;99.90
9179;DHT22;71287;48.414;11.478;2024-01-30T04:10:56;-0.90;99.90
9179;DHT22;71287;48.414;11.478;2024-01-30T04:13:23;-0.80;99.90
9179;DHT22;71287;48.414;11.478;2024-01-30T04:15:49;-0.90;99.90
9179;DHT22;71287;48.414;11.478;2024-01-30T04:18:16;-0.90;99.90
9179;DHT22;71287;48.414;11.478;2024-01-30T04:20:43;-0.90;99.90
9179;DHT22;71287;48.414;11.478;2024-01-30T04:23:11;-0.90;99.90
9179;DHT22;71287;48.414;11.478;2024-01-30T04:25:38;-0.90;99.90
9179;DHT22;71287;48.414;11.478;2024-01-30T04:28:05;-0.90;99.90
9179;DHT22;71287;48.414;11.478;2024-01-30T04:30:31;-1.00;99.90
9179;DHT22;71287;48.414;11.478;2024-01-30T04:32:58;-1.00;99.90
9179;DHT22;71287;48.414;11.478;2024-01-30T04:35:25;-1.00;99.90
9179;DHT22;71287;48.414;11.478;2024-01-30T04:37:52;-1.00;99.90
9179;DHT22;71287;48.414;11.478;2024-01-30T04:40:21;-0.90;99.90
9179;DHT22;71287;48.414;11.478;2024-01-30T04:42:47;-0.90;99.90
9179;DHT22;71287;48.414;11.478;2024-01-30T04:45:14;-1.00;99.90
9179;DHT22;71287;48.414;11.478;2024-01-30T04:47:41;-1.00;99.90
9179;DHT22;71287;48.414;11.478;2024-01-30T04:50:08;-1.00;99.90
9179;DHT22;71287;48.414;11.478;2024-01-30T04:52:35;-1.00;99.90
9179;DHT22;71287;48.414;11.478;2024-01-30T04:55:02;-1.00;99.90
9179;DHT22;71287;48.414;11.478;2024-01-30T04:57:30;-1.00;99.90
9179;DHT22;71287;48.414;11.478;2024-01-30T04:59:59;-1.00;99.90
9179;DHT22;71287;48.414;11.478;2024-01-30T05:02:26;-1.00;99.90
9179;DHT22;71287;48.414;11.478;2024-01-30T05:04:53;-1.00;99.90
9179;DHT22;71287;48.414;11.478;2024-01-30T05:07:20;-1.10;99.90
9179;DHT22;71287;48.414;11.478;2024-01-30T05:09:46;-1.10;99.90
9179;DHT22;71287;48.414;11.478;2024-01-30T05:12:13;-1.10;99.90
9179;DHT22;71287;48.414;11.478;2024-01-30T05:14:41;-1.10;99.90
9179;DHT22;71287;48.414;11.478;2024-01-30T05:17:08;-1.10;99.90
9179;DHT22;71287;48.414;11.478;2024-01-30T05:19:38;-1.10;99.90
9179;DHT22;71287;48.414;11.478;2024-01-30T05:22:04;-1.10;99.90
9179;DHT22;71287;48.414;11.478;2024-01-30T05:24:31;-1.20;99.90
9179;DHT22;71287;48.414;11.478;2024-01-30T05:26:58;-1.20;99.90
9179;DHT22;71287;48.414;11.478;2024-01-30T05:29:25;-1.20;99.90
9179;DHT22;71287;48.414;11.478;2024-01-30T05:31:53;-1.20;99.90
9179;DHT22;71287;48.414;11.478;2024-01-30T05:34:19;-1.20;99.90
9179;DHT22;71287;48.414;11.478;2024-01-30T05:36:46;-1.30;99.90
9179;DHT22;71287;48.414;11.478;2024-01-30T05:39:13;-1.30;99.90
9179;DHT22;71287;48.414;11.478;2024-01-30T05:41:40;-1.30;99.90
9179;DHT22;71287;48.414;11.478;2024-01-30T05:44:07;-1.30;99.90
9179;DHT22;71287;48.414;11.478;2024-01-30T05:46:35;-1.30;99.90
9179;DHT22;71287;48.414;11.478;2024-01-30T05:49:03;-1.30;99.90
9179;DHT22;71287;48.414;11.478;2024-01-30T05:51:30;-1.30;99.90
9179;DHT22;71287;48.414;11.478;2024-01-30T05:53:56;-1.30;99.90
9179;DHT22;71287;48.414;11.478;2024-01-30T05:56:23;-1.30;99.90
9179;DHT22;71287;48.414;11.478;2024-01-30T05:58:50;-1.30;99.90
9179;DHT22;71287;48.414;11.478;2024-01-30T06:01:17;-1.30;99.90
9179;DHT22;71287;48.414;11.478;2024-01-30T06:03:44;-1.30;99.90
9179;DHT22;71287;48.414;11.478;2024-01-30T06:06:12;-1.30;99.90
9179;DHT22;71287;48.414;11.478;2024-01-30T06:08:38;-1.30;99.90
9179;DHT22;71287;48.414;11.478;2024-01-30T06:11:10;-1.30;99.90
9179;DHT22;71287;48.414;11.478;2024-01-30T06:13:38;-1.30;99.90
9179;DHT22;71287;48.414;11.478;2024-01-30T06:16:08;-1.30;99.90
9179;DHT22;71287;48.414;11.478;2024-01-30T06:18:35;-1.30;99.90
9179;DHT22;71287;48.414;11.478;2024-01-30T06:21:02;-1.30;99.90
9179;DHT22;71287;48.414;11.478;2024-01-30T06:23:30;-1.20;99.90
9179;DHT22;71287;48.414;11.478;2024-01-30T06:25:57;-1.30;99.90
9179;DHT22;71287;48.414;11.478;2024-01-30T06:28:23;-1.30;99.90
9179;DHT22;71287;48.414;11.478;2024-01-30T06:30:50;-1.30;99.90
9179;DHT22;71287;48.414;11.478;2024-01-30T06:33:17;-1.30;99.90
9179;DHT22;71287;48.414;11.478;2024-01-30T06:35:44;-1.30;99.90
9179;DHT22;71287;48.414;11.478;2024-01-30T06:38:11;-1.30;99.90
9179;DHT22;71287;48.414;11.478;2024-01-30T06:40:40;-1.30;99.90
9179;DHT22;71287;48.414;11.478;2024-01-30T06:43:06;-1.30;99.90
9179;DHT22;71287;48.414;11.478;2024-01-30T06:45:33;-1.30;99.90
9179;DHT22;71287;48.414;11.478;2024-01-30T06:48:01;-1.30;99.90
9179;DHT22;71287;48.414;11.478;2024-01-30T06:50:27;-1.30;99.90
9179;DHT22;71287;48.414;11.478;2024-01-30T06:52:54;-1.30;99.90
9179;DHT22;71287;48.414;11.478;2024-01-30T06:55:21;-1.30;99.90
9179;DHT22;71287;48.414;11.478;2024-01-30T06:57:49;-1.20;99.90
9179;DHT22;71287;48.414;11.478;2024-01-30T07:00:16;-1.20;99.90
9179;DHT22;71287;48.414;11.478;2024-01-30T07:02:45;-1.20;99.90
9179;DHT22;71287;48.414;11.478;2024-01-30T07:05:11;-1.10;99.90
9179;DHT22;71287;48.414;11.478;2024-01-30T07:07:38;-1.00;99.90
9179;DHT22;71287;48.414;11.478;2024-01-30T07:10:06;-0.70;99.90
9179;DHT22;71287;48.414;11.478;2024-01-30T07:12:33;-0.40;99.90
9179;DHT22;71287;48.414;11.478;2024-01-30T07:15:02;-0.10;99.90
9179;DHT22;71287;48.414;11.478;2024-01-30T07:17:29;0.20;99.90
9179;DHT22;71287;48.414;11.478;2024-01-30T07:19:56;0.50;99.90
9179;DHT22;71287;48.414;11.478;2024-01-30T07:22:22;0.80;99.90
9179;DHT22;71287;48.414;11.478;2024-01-30T07:28:11;1.30;99.90
9179;DHT22;71287;48.414;11.478;2024-01-30T07:30:40;1.50;99.90
9179;DHT22;71287;48.414;11.478;2024-01-30T07:33:08;1.70;99.90
9179;DHT22;71287;48.414;11.478;2024-01-30T07:35:35;1.80;99.90
9179;DHT22;71287;48.414;11.478;2024-01-30T07:38:01;1.90;99.90
9179;DHT22;71287;48.414;11.478;2024-01-30T07:40:28;2.00;99.90
9179;DHT22;71287;48.414;11.478;2024-01-30T07:42:55;2.10;99.90
9179;DHT22;71287;48.414;11.478;2024-01-30T07:45:22;2.20;99.90
9179;DHT22;71287;48.414;11.478;2024-01-30T07:47:51;2.30;99.90
9179;DHT22;71287;48.414;11.478;2024-01-30T07:50:18;2.30;99.90
9179;DHT22;71287;48.414;11.478;2024-01-30T07:52:45;2.40;99.90
9179;DHT22;71287;48.414;11.478;2024-01-30T07:55:14;2.50;99.90
9179;DHT22;71287;48.414;11.478;2024-01-30T07:57:41;2.60;99.90
9179;DHT22;71287;48.414;11.478;2024-01-30T08:00:09;2.70;99.90
9179;DHT22;71287;48.414;11.478;2024-01-30T08:02:36;2.80;99.90
9179;DHT22;71287;48.414;11.478;2024-01-30T08:05:04;3.00;99.90
9179;DHT22;71287;48.414;11.478;2024-01-30T08:07:31;3.20;99.90
9179;DHT22;71287;48.414;11.478;2024-01-30T08:09:58;3.30;99.90
9179;DHT22;71287;48.414;11.478;2024-01-30T08:12:25;3.50;99.90
9179;DHT22;71287;48.414;11.478;2024-01-30T08:14:51;3.60;99.90
9179;DHT22;71287;48.414;11.478;2024-01-30T08:17:18;3.60;99.90
9179;DHT22;71287;48.414;11.478;2024-01-30T08:19:45;3.70;99.90
9179;DHT22;71287;48.414;11.478;2024-01-30T08:22:13;3.80;99.90
9179;DHT22;71287;48.414;11.478;2024-01-30T08:24:41;3.90;99.90
9179;DHT22;71287;48.414;11.478;2024-01-30T08:27:08;4.00;99.90
9179;DHT22;71287;48.414;11.478;2024-01-30T08:29:35;4.10;99.90
9179;DHT22;71287;48.414;11.478;2024-01-30T08:32:04;4.30;99.90
9179;DHT22;71287;48.414;11.478;2024-01-30T08:34:30;4.40;99.90
9179;DHT22;71287;48.414;11.478;2024-01-30T08:36:57;4.60;99.90
9179;DHT22;71287;48.414;11.478;2024-01-30T08:39:25;4.70;99.90
9179;DHT22;71287;48.414;11.478;2024-01-30T08:41:52;4.80;99.90
9179;DHT22;71287;48.414;11.478;2024-01-30T08:44:19;4.80;99.90
9179;DHT22;71287;48.414;11.478;2024-01-30T08:46:46;4.90;99.90
9179;DHT22;71287;48.414;11.478;2024-01-30T08:49:13;5.10;99.90
9179;DHT22;71287;48.414;11.478;2024-01-30T08:51:40;5.20;99.90
9179;DHT22;71287;48.414;11.478;2024-01-30T08:54:07;5.30;99.90
9179;DHT22;71287;48.414;11.478;2024-01-30T08:56:35;5.40;99.90
9179;DHT22;71287;48.414;11.478;2024-01-30T08:59:01;5.50;99.90
9179;DHT22;71287;48.414;11.478;2024-01-30T09:01:28;5.60;99.90
9179;DHT22;71287;48.414;11.478;2024-01-30T09:03:56;5.60;99.90
9179;DHT22;71287;48.414;11.478;2024-01-30T09:06:23;5.70;99.90
9179;DHT22;71287;48.414;11.478;2024-01-30T09:08:52;5.80;99.90
9179;DHT22;71287;48.414;11.478;2024-01-30T09:11:18;5.90;99.90
9179;DHT22;71287;48.414;11.478;2024-01-30T09:13:46;5.90;99.90
9179;DHT22;71287;48.414;11.478;2024-01-30T09:16:13;5.90;99.90
9179;DHT22;71287;48.414;11.478;2024-01-30T09:18:41;6.00;99.90
9179;DHT22;71287;48.414;11.478;2024-01-30T09:21:08;6.10;99.90
9179;DHT22;71287;48.414;11.478;2024-01-30T09:23:35;6.10;99.90
9179;DHT22;71287;48.414;11.478;2024-01-30T09:26:01;6.20;99.90
9179;DHT22;71287;48.414;11.478;2024-01-30T09:28:29;6.20;99.90
9179;DHT22;71287;48.414;11.478;2024-01-30T09:30:57;6.40;99.90
9179;DHT22;71287;48.414;11.478;2024-01-30T09:33:23;6.50;99.90
9179;DHT22;71287;48.414;11.478;2024-01-30T09:35:50;6.50;99.90
9179;DHT22;71287;48.414;11.478;2024-01-30T09:38:17;6.60;99.90
9179;DHT22;71287;48.414;11.478;2024-01-30T09:40:45;6.60;99.90
9179;DHT22;71287;48.414;11.478;2024-01-30T09:43:17;6.70;99.90
9179;DHT22;71287;48.414;11.478;2024-01-30T09:45:48;6.70;99.90
9179;DHT22;71287;48.414;11.478;2024-01-30T09:48:17;6.90;99.90
9179;DHT22;71287;48.414;11.478;2024-01-30T09:50:44;7.00;99.90
9179;DHT22;71287;48.414;11.478;2024-01-30T09:53:13;7.20;99.90
9179;DHT22;71287;48.414;11.478;2024-01-30T09:55:43;7.40;99.90
9179;DHT22;71287;48.414;11.478;2024-01-30T09:58:09;7.50;99.90
9179;DHT22;71287;48.414;11.478;2024-01-30T10:00:36;7.60;99.90
9179;DHT22;71287;48.414;11.478;2024-01-30T10:03:04;7.80;99.90
9179;DHT22;71287;48.414;11.478;2024-01-30T10:05:33;7.80;99.90
9179;DHT22;71287;48.414;11.478;2024-01-30T10:08:06;8.00;99.90
9179;DHT22;71287;48.414;11.478;2024-01-30T10:10:33;8.10;99.90
9179;DHT22;71287;48.414;11.478;2024-01-30T10:13:00;8.20;99.90
9179;DHT22;71287;48.414;11.478;2024-01-30T10:15:28;8.20;99.90
9179;DHT22;71287;48.414;11.478;2024-01-30T10:17:54;8.30;99.90
9179;DHT22;71287;48.414;11.478;2024-01-30T10:20:21;8.40;99.90
9179;DHT22;71287;48.414;11.478;2024-01-30T10:22:49;8.40;99.90
9179;DHT22;71287;48.414;11.478;2024-01-30T10:25:17;8.50;99.90
9179;DHT22;71287;48.414;11.478;2024-01-30T10:27:44;8.50;99.90
9179;DHT22;71287;48.414;11.478;2024-01-30T10:30:11;8.60;99.90
9179;DHT22;71287;48.414;11.478;2024-01-30T10:32:38;8.70;99.90
9179;DHT22;71287;48.414;11.478;2024-01-30T10:35:05;8.80;99.90
9179;DHT22;71287;48.414;11.478;2024-01-30T10:37:31;8.90;99.90
9179;DHT22;71287;48.414;11.478;2024-01-30T10:40:03;9.00;99.80
9179;DHT22;71287;48.414;11.478;2024-01-30T10:42:32;9.10;99.50
9179;DHT22;71287;48.414;11.478;2024-01-30T10:45:06;9.20;99.60
9179;DHT22;71287;48.414;11.478;2024-01-30T10:47:34;9.20;99.50
9179;DHT22;71287;48.414;11.478;2024-01-30T10:50:02;9.40;99.30
9179;DHT22;71287;48.414;11.478;2024-01-30T10:52:29;9.60;99.00
9179;DHT22;71287;48.414;11.478;2024-01-30T10:55:00;9.70;98.70
9179;DHT22;71287;48.414;11.478;2024-01-30T10:57:27;9.70;98.50
9179;DHT22;71287;48.414;11.478;2024-01-30T10:59:56;9.80;98.40
9179;DHT22;71287;48.414;11.478;2024-01-30T11:02:24;9.80;98.20
9179;DHT22;71287;48.414;11.478;2024-01-30T11:04:55;9.80;97.90
9179;DHT22;71287;48.414;11.478;2024-01-30T11:07:25;9.80;98.00
9179;DHT22;71287;48.414;11.478;2024-01-30T11:09:52;9.90;98.00
9179;DHT22;71287;48.414;11.478;2024-01-30T11:12:23;10.00;97.30
9179;DHT22;71287;48.414;11.478;2024-01-30T11:15:00;10.10;97.10
9179;DHT22;71287;48.414;11.478;2024-01-30T11:17:40;10.20;96.90
9179;DHT22;71287;48.414;11.478;2024-01-30T11:20:10;10.30;96.70
9179;DHT22;71287;48.414;11.478;2024-01-30T11:22:41;10.40;96.70
9179;DHT22;71287;48.414;11.478;2024-01-30T11:25:11;10.40;96.30
9179;DHT22;71287;48.414;11.478;2024-01-30T11:27:39;10.50;96.20
9179;DHT22;71287;48.414;11.478;2024-01-30T11:30:08;10.40;95.70
9179;DHT22;71287;48.414;11.478;2024-01-30T11:32:35;10.30;95.40
9179;DHT22;71287;48.414;11.478;2024-01-30T11:35:03;10.20;95.20
9179;DHT22;71287;48.414;11.478;2024-01-30T11:37:32;10.20;95.20
9179;DHT22;71287;48.414;11.478;2024-01-30T11:40:03;10.20;95.40
9179;DHT22;71287;48.414;11.478;2024-01-30T11:42:30;10.10;95.60
9179;DHT22;71287;48.414;11.478;2024-01-30T11:45:01;10.20;95.80
9179;DHT22;71287;48.414;11.478;2024-01-30T11:47:28;10.30;96.00
9179;DHT22;71287;48.414;11.478;2024-01-30T11:49:55;10.40;96.10
9179;DHT22;71287;48.414;11.478;2024-01-30T11:52:22;10.60;95.80
9179;DHT22;71287;48.414;11.478;2024-01-30T11:54:49;10.60;95.50
9179;DHT22;71287;48.414;11.478;2024-01-30T11:57:16;10.60;95.40
9179;DHT22;71287;48.414;11.478;2024-01-30T11:59:42;10.60;95.20
9179;DHT22;71287;48.414;11.478;2024-01-30T12:02:15;10.70;95.20
9179;DHT22;71287;48.414;11.478;2024-01-30T12:04:42;10.70;94.90
9179;DHT22;71287;48.414;11.478;2024-01-30T12:07:09;10.70;94.70
9179;DHT22;71287;48.414;11.478;2024-01-30T12:09:36;10.80;94.60
9179;DHT22;71287;48.414;11.478;2024-01-30T12:12:03;10.90;94.30
9179;DHT22;71287;48.414;11.478;2024-01-30T12:14:31;11.10;94.30
9179;DHT22;71287;48.414;11.478;2024-01-30T12:16:58;11.20;93.90
9179;DHT22;71287;48.414;11.478;2024-01-30T12:19:26;11.30;93.80
9179;DHT22;71287;48.414;11.478;2024-01-30T12:21:56;11.30;93.80
9179;DHT22;71287;48.414;11.478;2024-01-30T12:24:24;11.30;93.40
9179;DHT22;71287;48.414;11.478;2024-01-30T12:26:51;11.40;93.50
9179;DHT22;71287;48.414;11.478;2024-01-30T12:29:20;11.40;93.30
9179;DHT22;71287;48.414;11.478;2024-01-30T12:31:47;11.50;93.20
9179;DHT22;71287;48.414;11.478;2024-01-30T12:34:14;11.50;93.10
9179;DHT22;71287;48.414;11.478;2024-01-30T12:36:43;11.60;92.80
9179;DHT22;71287;48.414;11.478;2024-01-30T12:39:11;11.70;92.70
9179;DHT22;71287;48.414;11.478;2024-01-30T12:41:40;11.70;92.50
9179;DHT22;71287;48.414;11.478;2024-01-30T12:44:07;11.80;92.20
9179;DHT22;71287;48.414;11.478;2024-01-30T12:46:34;11.80;92.00
9179;DHT22;71287;48.414;11.478;2024-01-30T12:49:01;11.90;91.80
9179;DHT22;71287;48.414;11.478;2024-01-30T12:51:27;11.90;91.60
9179;DHT22;71287;48.414;11.478;2024-01-30T12:53:56;11.90;91.70
9179;DHT22;71287;48.414;11.478;2024-01-30T12:56:22;11.90;91.70
9179;DHT22;71287;48.414;11.478;2024-01-30T12:58:49;11.90;91.60
9179;DHT22;71287;48.414;11.478;2024-01-30T13:01:16;11.90;91.60
9179;DHT22;71287;48.414;11.478;2024-01-30T13:03:43;12.00;91.50
9179;DHT22;71287;48.414;11.478;2024-01-30T13:06:09;12.00;91.30
9179;DHT22;71287;48.414;11.478;2024-01-30T13:08:36;11.90;91.30
9179;DHT22;71287;48.414;11.478;2024-01-30T13:11:04;11.90;91.30
9179;DHT22;71287;48.414;11.478;2024-01-30T13:13:31;12.00;91.30
9179;DHT22;71287;48.414;11.478;2024-01-30T13:15:58;12.00;91.30
9179;DHT22;71287;48.414;11.478;2024-01-30T13:18:25;12.00;91.20
9179;DHT22;71287;48.414;11.478;2024-01-30T13:20:51;12.00;91.20
9179;DHT22;71287;48.414;11.478;2024-01-30T13:23:18;12.00;91.10
9179;DHT22;71287;48.414;11.478;2024-01-30T13:25:45;12.10;91.00
9179;DHT22;71287;48.414;11.478;2024-01-30T13:28:13;12.10;90.90
9179;DHT22;71287;48.414;11.478;2024-01-30T13:30:40;12.10;90.70
9179;DHT22;71287;48.414;11.478;2024-01-30T13:33:06;12.10;90.70
9179;DHT22;71287;48.414;11.478;2024-01-30T13:35:33;12.20;90.70
9179;DHT22;71287;48.414;11.478;2024-01-30T13:38:00;12.10;90.50
9179;DHT22;71287;48.414;11.478;2024-01-30T13:40:26;12.20;90.50
9179;DHT22;71287;48.414;11.478;2024-01-30T13:42:53;12.20;90.40
9179;DHT22;71287;48.414;11.478;2024-01-30T13:45:21;12.10;90.40
9179;DHT22;71287;48.414;11.478;2024-01-30T13:47:48;12.10;90.50
9179;DHT22;71287;48.414;11.478;2024-01-30T13:50:15;12.10;90.50
9179;DHT22;71287;48.414;11.478;2024-01-30T13:52:42;12.00;90.40
9179;DHT22;71287;48.414;11.478;2024-01-30T13:55:09;12.00;90.50
9179;DHT22;71287;48.414;11.478;2024-01-30T13:57:35;11.90;90.40
9179;DHT22;71287;48.414;11.478;2024-01-30T14:00:03;11.80;90.70
9179;DHT22;71287;48.414;11.478;2024-01-30T14:02:33;11.80;90.40
9179;DHT22;71287;48.414;11.478;2024-01-30T14:05:00;11.60;90.60
9179;DHT22;71287;48.414;11.478;2024-01-30T14:07:27;11.50;90.70
9179;DHT22;71287;48.414;11.478;2024-01-30T14:09:53;11.40;91.00
9179;DHT22;71287;48.414;11.478;2024-01-30T14:12:20;11.40;91.20
9179;DHT22;71287;48.414;11.478;2024-01-30T14:14:47;11.30;91.40
9179;DHT22;71287;48.414;11.478;2024-01-30T14:17:14;11.30;91.50
9179;DHT22;71287;48.414;11.478;2024-01-30T14:19:42;11.30;91.50
9179;DHT22;71287;48.414;11.478;2024-01-30T14:22:08;11.20;91.70
9179;DHT22;71287;48.414;11.478;2024-01-30T14:24:35;11.10;91.80
9179;DHT22;71287;48.414;11.478;2024-01-30T14:27:02;11.10;92.10
9179;DHT22;71287;48.414;11.478;2024-01-30T14:29:29;11.10;92.70
9179;DHT22;71287;48.414;11.478;2024-01-30T14:31:56;11.00;93.10
9179;DHT22;71287;48.414;11.478;2024-01-30T14:34:23;10.90;93.10
9179;DHT22;71287;48.414;11.478;2024-01-30T14:36:51;10.90;93.10
9179;DHT22;71287;48.414;11.478;2024-01-30T14:42:59;10.90;93.30
9179;DHT22;71287;48.414;11.478;2024-01-30T14:45:26;11.20;92.70
9179;DHT22;71287;48.414;11.478;2024-01-30T14:47:53;11.10;92.70
9179;DHT22;71287;48.414;11.478;2024-01-30T14:50:21;11.30;93.90
9179;DHT22;71287;48.414;11.478;2024-01-30T14:52:50;11.10;93.80
9179;DHT22;71287;48.414;11.478;2024-01-30T14:55:17;11.00;94.20
9179;DHT22;71287;48.414;11.478;2024-01-30T14:57:44;10.90;94.50
9179;DHT22;71287;48.414;11.478;2024-01-30T15:00:13;10.70;94.80
9179;DHT22;71287;48.414;11.478;2024-01-30T15:02:41;10.60;95.00
9179;DHT22;71287;48.414;11.478;2024-01-30T15:05:08;10.40;95.10
9179;DHT22;71287;48.414;11.478;2024-01-30T15:07:36;10.30;95.10
9179;DHT22;71287;48.414;11.478;2024-01-30T15:10:05;10.20;95.10
9179;DHT22;71287;48.414;11.478;2024-01-30T15:12:32;10.10;95.10
9179;DHT22;71287;48.414;11.478;2024-01-30T15:14:59;10.10;95.40
9179;DHT22;71287;48.414;11.478;2024-01-30T15:17:26;10.00;95.70
9179;DHT22;71287;48.414;11.478;2024-01-30T15:19:53;9.90;96.30
9179;DHT22;71287;48.414;11.478;2024-01-30T15:22:20;9.80;96.40
9179;DHT22;71287;48.414;11.478;2024-01-30T15:24:46;9.80;96.50
9179;DHT22;71287;48.414;11.478;2024-01-30T15:27:15;9.70;96.80
9179;DHT22;71287;48.414;11.478;2024-01-30T15:29:41;9.70;96.40
9179;DHT22;71287;48.414;11.478;2024-01-30T15:32:08;9.70;96.50
9179;DHT22;71287;48.414;11.478;2024-01-30T15:34:35;9.60;96.40
9179;DHT22;71287;48.414;11.478;2024-01-30T15:37:02;9.60;96.40
9179;DHT22;71287;48.414;11.478;2024-01-30T15:39:29;9.60;96.40
9179;DHT22;71287;48.414;11.478;2024-01-30T15:41:56;9.60;96.40
9179;DHT22;71287;48.414;11.478;2024-01-30T15:44:25;9.50;96.60